createdAt,value
2023-02-09T00:02:49.148Z,60.35
2023-02-09T00:06:51.341Z,60.33
2023-02-09T00:10:53.617Z,60.72
2023-02-09T00:14:55.749Z,60.97
2023-02-09T00:18:57.791Z,61.22
2023-02-09T00:22:59.843Z,61.05
2023-02-09T00:27:01.840Z,61.65
2023-02-09T00:31:09.100Z,61.83
2023-02-09T00:35:11.173Z,62.14
2023-02-09T00:39:13.232Z,62.45
2023-02-09T00:43:15.274Z,62.33
2023-02-09T00:47:17.277Z,62.90
2023-02-09T00:51:19.347Z,63.14
2023-02-09T00:55:21.818Z,63.41
2023-02-09T00:59:24.048Z,63.74
2023-02-09T01:03:26.079Z,64.23
2023-02-09T01:07:29.139Z,64.02
2023-02-09T01:11:31.312Z,63.64
2023-02-09T01:15:33.492Z,63.64
2023-02-09T01:19:35.962Z,63.66
2023-02-09T01:23:38.880Z,63.96
2023-02-09T01:27:42.191Z,64.06
2023-02-09T01:31:44.672Z,64.50
2023-02-09T01:35:46.723Z,65.18
2023-02-09T01:39:48.764Z,65.25
2023-02-09T01:43:56.112Z,65.84
2023-02-09T01:48:01.675Z,65.50
2023-02-09T01:52:11.114Z,65.75
2023-02-09T01:56:21.235Z,66.03
2023-02-09T02:00:24.581Z,66.41
2023-02-09T02:04:26.930Z,66.15
2023-02-09T02:08:44.064Z,65.98
2023-02-09T02:12:46.909Z,66.50
2023-02-09T02:16:57.958Z,65.81
2023-02-09T02:21:15.305Z,66.14
2023-02-09T02:25:55.249Z,66.13
2023-02-09T02:30:06.028Z,66.47
2023-02-09T02:34:20.299Z,66.35
2023-02-09T02:38:28.364Z,66.88
2023-02-09T02:42:48.606Z,66.36
2023-02-09T02:46:59.823Z,66.53
2023-02-09T02:51:13.485Z,66.97
2023-02-09T02:55:19.274Z,66.54
2023-02-09T02:59:26.940Z,66.84
2023-02-09T03:03:35.367Z,66.99
2023-02-09T03:07:37.408Z,67.39
2023-02-09T03:11:44.163Z,67.15
2023-02-09T03:15:54.253Z,67.63
2023-02-09T03:20:13.983Z,68.02
2023-02-09T03:24:31.357Z,68.54
2023-02-09T03:28:36.958Z,69.16
2023-02-09T03:32:45.268Z,69.40
2023-02-09T03:36:55.044Z,69.18
2023-02-09T03:40:57.395Z,69.93
2023-02-09T03:44:59.521Z,70.25
2023-02-09T03:49:01.633Z,70.64
2023-02-09T03:53:07.587Z,70.86
2023-02-09T03:57:10.327Z,71.14
2023-02-09T04:01:12.358Z,71.52
2023-02-09T04:05:14.552Z,71.93
2023-02-09T04:09:17.026Z,73.45
2023-02-09T04:13:19.028Z,74.03
2023-02-09T04:17:21.053Z,73.90
2023-02-09T04:21:23.272Z,73.60
2023-02-09T04:25:25.300Z,73.09
2023-02-09T04:29:27.516Z,72.57
2023-02-09T04:33:29.733Z,72.82
2023-02-09T04:37:31.717Z,72.59
2023-02-09T04:41:33.780Z,73.33
2023-02-09T04:45:38.454Z,72.93
2023-02-09T04:49:42.544Z,73.67
2023-02-09T04:53:44.602Z,74.06
2023-02-09T04:58:05.155Z,73.93
2023-02-09T05:02:07.817Z,74.06
2023-02-09T05:06:09.896Z,73.67
2023-02-09T05:10:12.039Z,73.56
2023-02-09T05:14:14.075Z,73.96
2023-02-09T05:18:16.565Z,73.56
2023-02-09T05:22:18.593Z,74.27
2023-02-09T05:26:20.723Z,74.33
2023-02-09T05:30:22.955Z,74.34
2023-02-09T05:34:24.981Z,74.54
2023-02-09T05:38:27.009Z,74.50
2023-02-09T05:42:29.137Z,74.96
2023-02-09T05:46:31.169Z,74.90
2023-02-09T05:50:33.538Z,74.69
2023-02-09T05:54:41.683Z,75.30
2023-02-09T05:58:43.700Z,75.31
2023-02-09T06:02:45.822Z,75.56
2023-02-09T06:06:48.020Z,76.11
2023-02-09T06:10:50.075Z,76.41
2023-02-09T06:14:52.095Z,76.38
2023-02-09T06:18:54.101Z,76.50
2023-02-09T06:22:56.090Z,76.28
2023-02-09T06:26:58.106Z,76.33
2023-02-09T06:31:00.338Z,76.60
2023-02-09T06:35:02.493Z,76.37
2023-02-09T06:39:09.177Z,76.27
2023-02-09T06:43:11.132Z,76.37
2023-02-09T06:47:13.198Z,76.24
2023-02-09T06:51:17.032Z,80.20
2023-02-09T06:55:19.344Z,79.60
2023-02-09T06:59:21.415Z,78.83
2023-02-09T07:03:23.516Z,78.25
2023-02-09T07:07:25.706Z,78.00
2023-02-09T07:11:27.837Z,77.97
2023-02-09T07:15:29.846Z,78.86
2023-02-09T07:19:32.034Z,78.24
2023-02-09T07:23:34.414Z,78.12
2023-02-09T07:27:36.454Z,77.92
2023-02-09T07:31:38.701Z,77.28
2023-02-09T07:35:40.907Z,77.34
2023-02-09T07:39:42.923Z,77.62
2023-02-09T07:43:45.531Z,77.47
2023-02-09T07:47:47.610Z,76.74
2023-02-09T07:51:49.636Z,77.06
2023-02-09T07:55:51.919Z,80.45
2023-02-09T07:59:53.939Z,79.74
2023-02-09T08:03:55.957Z,79.62
2023-02-09T08:07:58.584Z,78.62
2023-02-09T08:12:05.123Z,78.13
2023-02-09T08:16:15.734Z,77.41
2023-02-09T08:20:20.682Z,77.35
2023-02-09T08:24:22.731Z,76.90
2023-02-09T08:28:38.219Z,76.38
2023-02-09T08:32:45.093Z,76.07
2023-02-09T08:36:47.134Z,75.21
2023-02-09T08:40:49.225Z,74.26
2023-02-09T08:44:51.321Z,73.68
2023-02-09T08:48:53.365Z,73.24
2023-02-09T08:52:57.798Z,71.61
2023-02-09T08:57:01.240Z,71.23
2023-02-09T09:01:03.864Z,71.33
2023-02-09T09:05:06.388Z,70.17
2023-02-09T09:09:08.672Z,69.93
2023-02-09T09:13:10.693Z,68.88
2023-02-09T09:17:12.735Z,67.98
2023-02-09T09:21:16.887Z,68.01
2023-02-09T09:25:18.880Z,67.09
2023-02-09T09:29:20.916Z,66.42
2023-02-09T09:33:22.948Z,66.09
2023-02-09T09:37:26.267Z,65.96
2023-02-09T09:41:36.398Z,65.61
2023-02-09T09:45:39.383Z,65.36
2023-02-09T09:49:41.876Z,65.09
2023-02-09T09:53:45.687Z,65.23
2023-02-09T09:57:49.054Z,64.26
2023-02-09T10:01:53.574Z,64.46
2023-02-09T10:06:01.250Z,64.40
2023-02-09T10:10:14.143Z,64.11
2023-02-09T10:14:16.169Z,63.47
2023-02-09T10:18:21.177Z,63.68
2023-02-09T10:22:23.261Z,63.39
2023-02-09T10:26:39.287Z,62.41
2023-02-09T10:30:46.309Z,62.31
2023-02-09T10:34:52.112Z,61.82
2023-02-09T10:39:10.130Z,61.87
2023-02-09T10:43:25.791Z,61.76
2023-02-09T10:47:30.995Z,61.21
2023-02-09T10:51:34.931Z,60.63
2023-02-09T10:55:41.855Z,59.64
2023-02-09T10:59:50.966Z,59.62
2023-02-09T11:04:00.944Z,59.52
2023-02-09T11:08:12.942Z,58.74
2023-02-09T11:12:15.178Z,58.84
2023-02-09T11:16:49.704Z,59.04
2023-02-09T11:20:58.613Z,58.83
2023-02-09T11:25:19.655Z,58.54
2023-02-09T11:29:29.759Z,57.61
2023-02-09T11:34:19.824Z,57.31
2023-02-09T11:38:46.261Z,57.42
2023-02-09T11:43:02.678Z,56.45
2023-02-09T11:47:14.757Z,56.55
2023-02-09T11:51:20.887Z,56.30
2023-02-09T11:55:38.445Z,56.33
2023-02-09T11:59:45.619Z,56.15
2023-02-09T12:03:55.916Z,55.40
2023-02-09T12:08:28.876Z,54.92
2023-02-09T12:12:48.862Z,54.91
2023-02-09T12:17:00.454Z,54.82
2023-02-09T12:21:05.308Z,54.05
2023-02-09T12:25:21.255Z,53.88
2023-02-09T12:29:40.694Z,53.86
2023-02-09T12:33:45.692Z,53.69
2023-02-09T12:38:21.313Z,53.29
2023-02-09T12:42:27.456Z,53.05
2023-02-09T12:46:29.564Z,52.45
2023-02-09T12:50:42.596Z,51.73
2023-02-09T12:54:49.114Z,52.13
2023-02-09T12:58:51.119Z,51.81
2023-02-09T13:02:56.564Z,51.41
2023-02-09T13:06:59.055Z,51.53
2023-02-09T13:11:21.684Z,50.39
2023-02-09T13:15:29.072Z,51.22
2023-02-09T13:19:59.971Z,51.48
2023-02-09T13:24:11.187Z,51.72
2023-02-09T13:28:19.243Z,51.67
2023-02-09T13:32:36.993Z,51.47
2023-02-09T13:36:50.092Z,50.87
2023-02-09T13:40:52.390Z,50.46
2023-02-09T13:44:58.166Z,49.96
2023-02-09T13:49:15.852Z,49.60
2023-02-09T13:53:19.941Z,49.90
2023-02-09T13:57:31.514Z,50.42
2023-02-09T14:01:36.595Z,50.29
2023-02-09T14:05:48.243Z,50.46
2023-02-09T14:09:58.096Z,50.54
2023-02-09T14:14:15.160Z,50.48
2023-02-09T14:18:46.877Z,50.50
2023-02-09T14:23:00.419Z,50.95
2023-02-09T14:27:18.555Z,51.18
2023-02-09T14:31:26.737Z,51.34
2023-02-09T14:35:40.241Z,51.11
2023-02-09T14:40:06.788Z,51.44
2023-02-09T14:44:08.833Z,51.61
2023-02-09T14:48:20.268Z,51.58
2023-02-09T14:52:28.678Z,51.91
2023-02-09T14:56:34.367Z,51.94
2023-02-09T15:00:36.409Z,52.09
2023-02-09T15:04:38.454Z,52.05
2023-02-09T15:08:41.261Z,52.38
2023-02-09T15:12:43.303Z,52.83
2023-02-09T15:16:45.359Z,52.79
2023-02-09T15:20:47.815Z,52.99
2023-02-09T15:24:54.221Z,53.14
2023-02-09T15:28:56.552Z,53.14
2023-02-09T15:32:58.920Z,53.68
2023-02-09T15:37:01.613Z,53.84
2023-02-09T15:41:22.643Z,53.68
2023-02-09T15:45:46.157Z,54.27
2023-02-09T15:49:48.277Z,54.63
2023-02-09T15:53:51.082Z,54.97
2023-02-09T15:57:54.718Z,55.22
2023-02-09T16:01:59.902Z,55.79
2023-02-09T16:06:10.589Z,56.31
2023-02-09T16:10:18.878Z,56.45
2023-02-09T16:14:22.967Z,57.09
2023-02-09T16:18:25.034Z,57.15
2023-02-09T16:22:27.039Z,57.85
2023-02-09T16:26:30.157Z,58.05
2023-02-09T16:30:37.760Z,59.15
2023-02-09T16:34:39.760Z,59.68
2023-02-09T16:38:42.081Z,59.85
2023-02-09T16:42:44.200Z,60.13
2023-02-09T16:46:49.251Z,60.96
2023-02-09T16:50:53.764Z,61.02
2023-02-09T16:54:58.670Z,61.16
2023-02-09T16:59:00.744Z,61.14
2023-02-09T17:03:04.959Z,61.79
2023-02-09T17:07:09.419Z,62.18
2023-02-09T17:11:16.997Z,62.53
2023-02-09T17:15:29.436Z,62.66
2023-02-09T17:19:46.948Z,63.11
2023-02-09T17:23:51.057Z,63.23
2023-02-09T17:27:53.220Z,63.55
2023-02-09T17:31:55.532Z,64.07
2023-02-09T17:36:24.455Z,64.06
2023-02-09T17:40:22.165Z,63.86
2023-02-09T17:44:43.733Z,64.32
2023-02-09T17:48:48.248Z,64.77
2023-02-09T17:52:51.910Z,64.57
2023-02-09T17:56:53.947Z,64.88
2023-02-09T18:00:56.682Z,64.98
2023-02-09T18:04:58.758Z,64.89
2023-02-09T18:09:02.728Z,65.34
2023-02-09T18:13:05.036Z,65.24
2023-02-09T18:17:07.276Z,65.91
2023-02-09T18:21:13.687Z,66.71
2023-02-09T18:25:32.825Z,66.44
2023-02-09T18:29:35.381Z,65.82
2023-02-09T18:33:38.477Z,66.58
2023-02-09T18:37:40.471Z,66.22
2023-02-09T18:41:43.697Z,66.61
2023-02-09T18:45:46.144Z,66.12
2023-02-09T18:49:48.307Z,66.23
2023-02-09T18:53:51.178Z,67.01
2023-02-09T18:57:53.285Z,67.92
2023-02-09T19:01:55.563Z,68.38
2023-02-09T19:05:57.672Z,68.89
2023-02-09T19:10:00.591Z,69.91
2023-02-09T19:14:21.346Z,69.56
2023-02-09T19:18:23.402Z,69.60
2023-02-09T19:22:25.730Z,70.31
2023-02-09T19:26:27.892Z,69.90
2023-02-09T19:30:29.909Z,70.31
2023-02-09T19:34:36.099Z,70.65
2023-02-09T19:38:38.191Z,70.58
2023-02-09T19:42:40.283Z,70.46
2023-02-09T19:46:43.567Z,71.38
2023-02-09T19:50:53.362Z,71.19
2023-02-09T19:54:57.582Z,72.54
2023-02-09T19:59:00.555Z,73.05
2023-02-09T20:03:02.663Z,72.54
2023-02-09T20:07:05.057Z,72.82
2023-02-09T20:11:09.194Z,73.03
2023-02-09T20:15:11.217Z,73.64
2023-02-09T20:19:13.410Z,73.77
2023-02-09T20:23:15.570Z,74.53
2023-02-09T20:27:18.984Z,74.54
2023-02-09T20:31:23.468Z,73.63
2023-02-09T20:35:25.482Z,73.99
2023-02-09T20:39:27.642Z,73.93
2023-02-09T20:43:48.430Z,73.97
2023-02-09T20:47:50.559Z,74.48
2023-02-09T20:51:52.553Z,74.39
2023-02-09T20:55:54.623Z,74.47
2023-02-09T20:59:57.654Z,74.47
2023-02-09T21:04:00.283Z,74.10
2023-02-09T21:08:04.418Z,74.64
2023-02-09T21:12:06.563Z,75.53
2023-02-09T21:16:10.804Z,74.63
2023-02-09T21:20:14.422Z,75.04
2023-02-09T21:24:16.997Z,73.92
2023-02-09T21:28:19.067Z,74.53
2023-02-09T21:32:21.173Z,74.02
2023-02-09T21:36:23.376Z,74.39
2023-02-09T21:40:25.418Z,74.70
2023-02-09T21:44:27.517Z,74.43
2023-02-09T21:48:29.539Z,74.60
2023-02-09T21:52:31.816Z,74.30
2023-02-09T21:56:33.825Z,74.90
2023-02-09T22:00:35.852Z,74.96
2023-02-09T22:04:38.979Z,74.45
2023-02-09T22:08:41.534Z,74.59
2023-02-09T22:12:44.578Z,73.84
2023-02-09T22:16:46.708Z,73.28
2023-02-09T22:20:49.280Z,74.67
2023-02-09T22:24:51.893Z,75.49
2023-02-09T22:28:53.986Z,76.56
2023-02-09T22:32:56.046Z,76.86
2023-02-09T22:36:58.064Z,77.53
2023-02-09T22:41:21.124Z,77.75
2023-02-09T22:45:23.264Z,78.20
2023-02-09T22:49:25.314Z,77.67
2023-02-09T22:53:27.446Z,78.46
2023-02-09T22:57:29.491Z,78.75
2023-02-09T23:01:31.730Z,78.36
2023-02-09T23:05:34.463Z,79.12
2023-02-09T23:09:36.536Z,78.53
2023-02-09T23:13:38.689Z,78.45
2023-02-09T23:17:40.715Z,77.39
2023-02-09T23:21:45.678Z,78.46
2023-02-09T23:25:51.676Z,78.95
2023-02-09T23:29:54.645Z,78.47
2023-02-09T23:33:56.773Z,78.54
2023-02-09T23:37:58.826Z,77.58
2023-02-09T23:42:01.066Z,77.74
2023-02-09T23:46:05.442Z,77.28
2023-02-09T23:50:07.610Z,77.42
2023-02-09T23:54:10.795Z,76.68
2023-02-09T23:58:12.805Z,76.49
